Time;durP1;ratioP1;P1;durP2;ratioP2;P2;SDS_P1;SDS_P2;PMS_P1;PMS_P2;Temp;Humidity;BMP_temperature;BMP_pressure;BME280_temperature;BME280_humidity;BME280_pressure;Samples;Min_cycle;Max_cycle;Signal;HPM_P1;HPM_P2
2022/11/16 00:01:23;;;;;;;4.40;2.90;;;;;;;10.54;100.00;99761.69;5094585;28;20024;-90
2022/11/16 00:03:50;;;;;;;2.90;2.40;;;;;;;10.56;100.00;99759.91;5094730;28;20031;-90
2022/11/16 00:06:17;;;;;;;3.22;2.67;;;;;;;10.56;100.00;99757.31;5094492;28;20028;-90
2022/11/16 00:11:59;;;;;;;4.95;3.65;;;;;;;10.59;100.00;99761.53;5095014;28;20413;-92
2022/11/16 00:14:27;;;;;;;4.15;3.03;;;;;;;10.58;100.00;99759.84;5074264;28;20499;-92
2022/11/16 00:16:53;;;;;;;4.90;3.38;;;;;;;10.60;100.00;99764.06;5074259;28;20024;-92
2022/11/16 00:19:18;;;;;;;3.77;2.77;;;;;;;10.61;100.00;99770.13;5075211;28;20025;-91
2022/11/16 00:22:13;;;;;;;4.50;3.03;;;;;;;10.61;100.00;99772.72;5074722;28;20032;-93
2022/11/16 00:24:38;;;;;;;5.10;3.30;;;;;;;10.60;100.00;99771.88;5075046;28;20086;-93
2022/11/16 00:27:03;;;;;;;3.73;2.90;;;;;;;10.61;100.00;99772.72;5074580;28;20040;-94
2022/11/16 00:29:29;;;;;;;4.83;3.10;;;;;;;10.60;100.00;99769.28;5126215;22;20050;-94
2022/11/16 00:32:13;;;;;;;4.40;3.37;;;;;;;10.62;100.00;99759.69;5114601;28;20119;-93
2022/11/16 00:34:39;;;;;;;4.43;3.10;;;;;;;10.57;100.00;99764.19;5114811;28;20027;-94
2022/11/16 00:37:04;;;;;;;4.00;3.07;;;;;;;10.61;100.00;99772.72;5114447;28;20038;-93
2022/11/16 00:39:44;;;;;;;4.30;2.70;;;;;;;10.61;100.00;99765.78;5114356;28;20031;-93
2022/11/16 00:42:10;;;;;;;4.60;3.33;;;;;;;10.62;100.00;99759.69;5114639;28;20107;-92
2022/11/16 00:44:35;;;;;;;5.73;3.97;;;;;;;10.61;100.00;99747.63;5114791;28;20044;-93
2022/11/16 00:47:00;;;;;;;7.67;4.50;;;;;;;10.62;100.00;99753.66;5114776;28;20099;-93
2022/11/16 00:49:26;;;;;;;5.60;3.80;;;;;;;10.58;100.00;99747.75;5114401;28;20061;-93
2022/11/16 00:51:51;;;;;;;6.07;3.97;;;;;;;10.64;100.00;99739.75;5113878;28;20399;-94
2022/11/16 00:54:35;;;;;;;6.53;4.00;;;;;;;10.69;100.00;99737.00;5114505;28;20024;-92
2022/11/16 00:57:01;;;;;;;6.30;4.13;;;;;;;10.62;100.00;99735.50;5114760;28;20031;-93
2022/11/16 00:59:26;;;;;;;7.20;4.10;;;;;;;10.65;100.00;99745.75;5113867;28;20019;-92
2022/11/16 01:02:08;;;;;;;4.87;3.33;;;;;;;10.63;100.00;99750.19;5114167;28;20024;-92
2022/11/16 01:04:33;;;;;;;4.30;2.97;;;;;;;10.63;100.00;99743.22;5114331;28;20538;-92
2022/11/16 01:06:58;;;;;;;4.57;3.10;;;;;;;10.65;100.00;99743.16;5114536;28;20030;-92
2022/11/16 01:09:24;;;;;;;3.43;2.73;;;;;;;10.64;100.00;99737.16;5114078;28;20026;-93
2022/11/16 01:12:08;;;;;;;3.53;2.70;;;;;;;10.63;100.00;99740.63;5114129;28;20472;-92
2022/11/16 01:14:39;;;;;;;2.83;2.53;;;;;;;10.63;100.00;99739.81;5114314;28;20028;-91
2022/11/16 01:17:23;;;;;;;2.83;2.50;;;;;;;10.65;100.00;99745.75;5114277;28;20066;-92
2022/11/16 01:19:48;;;;;;;6.07;3.78;;;;;;;10.64;100.00;99731.09;5114100;28;20081;-92
2022/11/16 01:22:13;;;;;;;5.93;3.83;;;;;;;10.64;100.00;99725.91;5113972;28;20464;-92
2022/11/16 01:24:39;;;;;;;5.97;3.80;;;;;;;10.62;100.00;99731.16;5113776;28;20107;-91
2022/11/16 01:27:26;;;;;;;5.53;3.47;;;;;;;10.64;100.00;99723.31;5113658;28;20070;-92
2022/11/16 01:29:52;;;;;;;5.43;3.72;;;;;;;10.62;100.00;99723.38;5114090;28;20063;-91
2022/11/16 01:32:17;;;;;;;4.70;3.53;;;;;;;10.61;100.00;99716.47;5114022;28;20120;-92
2022/11/16 01:34:55;;;;;;;3.90;2.90;;;;;;;10.61;100.00;99723.44;5116956;28;20027;-91
2022/11/16 01:37:20;;;;;;;4.13;2.60;;;;;;;10.63;100.00;99721.63;5117952;28;20035;-91
2022/11/16 01:39:48;;;;;;;3.50;2.80;;;;;;;10.64;100.00;99718.97;5118132;28;20028;-92
2022/11/16 01:42:33;;;;;;;3.78;2.70;;;;;;;10.65;100.00;99717.22;5117511;28;20019;-91
2022/11/16 01:45:00;;;;;;;3.00;2.50;;;;;;;10.64;100.00;99716.38;5117659;28;20031;-90
2022/11/16 01:47:26;;;;;;;2.90;2.40;;;;;;;10.67;100.00;99715.44;5117662;28;20459;-90
2022/11/16 01:50:14;;;;;;;3.60;3.10;;;;;;;10.67;100.00;99710.22;5117601;28;20031;-90
2022/11/16 01:53:03;;;;;;;3.53;2.80;;;;;;;10.70;100.00;99712.72;5117608;28;20030;-90
2022/11/16 01:55:32;;;;;;;4.40;3.13;;;;;;;10.69;100.00;99711.03;5116632;28;20425;-90
2022/11/16 01:57:59;;;;;;;4.18;2.92;;;;;;;10.70;100.00;99717.06;5117359;28;20020;-89
2022/11/16 02:00:24;;;;;;;3.47;2.85;;;;;;;10.69;100.00;99713.63;5117653;28;20156;-89
2022/11/16 02:03:05;;;;;;;2.60;2.37;;;;;;;10.68;100.00;99703.31;5119643;28;20049;-89
2022/11/16 02:06:04;;;;;;;3.65;2.75;;;;;;;10.68;100.00;99703.31;5124457;28;20111;-89
2022/11/16 02:11:30;;;;;;;2.80;2.50;;;;;;;10.68;100.00;99705.91;5116062;28;20164;-89
2022/11/16 02:14:25;;;;;;;3.00;2.47;;;;;;;10.70;100.00;99707.53;5116550;28;20050;-88
2022/11/16 02:17:15;;;;;;;3.47;2.85;;;;;;;10.69;100.00;99705.84;5116636;28;20038;-89
2022/11/16 02:20:10;;;;;;;4.35;3.05;;;;;;;10.69;100.00;99707.59;5116592;28;20024;-88
2022/11/16 02:23:01;;;;;;;2.85;2.60;;;;;;;10.69;100.00;99705.00;5116529;28;20039;-88
2022/11/16 02:26:03;;;;;;;3.75;2.90;;;;;;;10.70;100.00;99701.50;5115722;28;20114;-88
2022/11/16 02:28:46;;;;;;;3.85;3.10;;;;;;;10.70;100.00;99704.09;5115977;28;20499;-88
2022/11/16 02:31:27;;;;;;;4.90;3.25;;;;;;;10.69;100.00;99698.06;5115719;28;20023;-88
2022/11/16 02:33:55;;;;;;;3.47;2.80;;;;;;;10.71;100.00;99695.41;5116479;28;20076;-88
2022/11/16 02:36:24;;;;;;;2.90;2.60;;;;;;;10.72;100.00;99699.69;5115877;28;20049;-88
2022/11/16 02:38:58;;;;;;;3.22;2.40;;;;;;;10.74;100.00;99695.31;5095674;28;20048;-90
2022/11/16 02:41:27;;;;;;;3.15;2.33;;;;;;;10.75;100.00;99704.78;5112162;28;20111;-90
2022/11/16 02:44:07;;;;;;;2.28;2.08;;;;;;;10.77;100.00;99703.00;5116616;28;20476;-94
2022/11/16 02:46:38;;;;;;;2.78;2.40;;;;;;;10.77;100.00;99711.63;5116895;28;20027;-93
2022/11/16 02:49:09;;;;;;;6.00;3.60;;;;;;;10.76;100.00;99712.50;5117444;28;20019;-96
2022/11/16 02:51:36;;;;;;;4.10;3.17;;;;;;;10.76;100.00;99709.91;5116383;28;20034;-94
2022/11/16 02:54:07;;;;;;;;;;;;;;;10.75;100.00;99718.59;5117711;28;20107;-93
2022/11/16 02:57:14;;;;;;;3.58;2.97;;;;;;;10.72;100.00;99713.53;5117382;28;19908;-92
2022/11/16 02:59:49;;;;;;;3.25;2.58;;;;;;;10.69;100.00;99711.03;5116560;28;20024;-92
2022/11/16 03:02:34;;;;;;;3.35;2.60;;;;;;;10.69;100.00;99723.19;5116247;28;20459;-92
2022/11/16 03:05:08;;;;;;;2.55;2.35;;;;;;;10.69;100.00;99728.38;5116565;28;20019;-92
2022/11/16 03:07:42;;;;;;;2.20;2.00;;;;;;;10.68;100.00;99719.72;5121679;22;20043;-91
2022/11/16 03:10:09;;;;;;;1.90;1.80;;;;;;;10.68;100.00;99713.69;5116034;28;20031;-92
2022/11/16 03:12:36;;;;;;;2.13;1.90;;;;;;;10.69;100.00;99707.59;5115959;28;20028;-92
2022/11/16 03:15:04;;;;;;;1.80;1.70;;;;;;;10.69;100.00;99708.44;5116032;28;20527;-92
2022/11/16 03:17:39;;;;;;;1.73;1.63;;;;;;;10.70;100.00;99706.69;5115845;28;20051;-91
2022/11/16 03:20:22;;;;;;;1.60;1.45;;;;;;;10.69;100.00;99702.41;5115862;28;20023;-91
2022/11/16 03:22:53;;;;;;;1.55;1.45;;;;;;;10.70;100.00;99717.94;5110931;28;20027;-91
2022/11/16 03:25:21;;;;;;;1.42;1.33;;;;;;;10.69;100.00;99718.81;5115926;28;20019;-91
2022/11/16 03:28:14;;;;;;;1.65;1.55;;;;;;;10.69;100.00;99729.19;5115662;28;20027;-91
2022/11/16 03:30:45;;;;;;;1.95;1.85;;;;;;;10.64;100.00;99711.19;5115892;28;20015;-91
2022/11/16 03:33:17;;;;;;;2.00;1.80;;;;;;;10.63;100.00;99713.84;5115849;28;20027;-90
2022/11/16 03:35:51;;;;;;;1.70;1.60;;;;;;;10.62;100.00;99718.19;5115802;28;20069;-90
2022/11/16 03:38:19;;;;;;;1.65;1.55;;;;;;;10.61;100.00;99726.03;5115688;28;20030;-90
2022/11/16 03:40:46;;;;;;;1.55;1.45;;;;;;;10.58;100.00;99721.78;5115572;28;20028;-90
2022/11/16 03:43:13;;;;;;;1.50;1.40;;;;;;;10.56;100.00;99733.09;5115010;28;20113;-90
2022/11/16 03:45:39;;;;;;;2.92;1.90;;;;;;;10.52;100.00;99731.53;5115492;28;20030;-90
2022/11/16 03:48:06;;;;;;;2.77;2.23;;;;;;;10.48;100.00;99729.03;5115393;28;20030;-90
2022/11/16 03:50:31;;;;;;;2.35;2.05;;;;;;;10.45;100.00;99736.91;5115465;28;20285;-89
2022/11/16 03:52:56;;;;;;;1.90;1.80;;;;;;;10.42;100.00;99751.72;5115152;28;20510;-90
2022/11/16 03:55:22;;;;;;;2.00;1.73;;;;;;;10.39;100.00;99746.63;5096034;28;20032;-89
2022/11/16 03:57:47;;;;;;;1.50;1.40;;;;;;;10.34;100.00;99745.00;5094225;28;20027;-90
2022/11/16 04:00:12;;;;;;;1.30;1.20;;;;;;;10.31;100.00;99747.69;5094361;28;20074;-88
2022/11/16 04:02:38;;;;;;;1.50;1.40;;;;;;;10.31;100.00;99752.00;5094018;28;20028;-90
2022/11/16 04:24:50;;;;;;;0.90;0.90;;;;;;;10.01;100.00;99760.72;5114168;28;20038;-88
2022/11/16 04:30:02;;;;;;;0.80;0.80;;;;;;;9.99;100.00;99759.91;5113777;28;20077;-88
2022/11/16 04:37:57;;;;;;;1.40;1.30;;;;;;;9.95;100.00;99767.84;5114194;28;20440;-89
2022/11/16 04:40:24;;;;;;;;;;;;;;;9.91;100.00;99764.47;5114393;28;20034;-87
2022/11/16 04:42:50;;;;;;;;;;;;;;;9.89;100.00;99771.44;5114862;28;19964;-88
2022/11/16 04:47:59;;;;;;;1.35;1.25;;;;;;;9.83;100.00;99767.31;5118931;28;20074;-88
2022/11/16 04:50:24;;;;;;;1.33;1.20;;;;;;;9.81;100.00;99781.19;5116295;28;20020;-88
2022/11/16 04:52:50;;;;;;;1.63;1.40;;;;;;;9.78;100.00;99782.13;5113241;28;20024;-88
2022/11/16 04:55:15;;;;;;;1.30;1.20;;;;;;;9.74;100.00;99785.69;5113375;28;20032;-88
2022/11/16 04:57:41;;;;;;;1.10;1.10;;;;;;;9.73;100.00;99792.63;5113898;28;20028;-88
2022/11/16 05:00:07;;;;;;;0.93;0.93;;;;;;;9.71;100.00;99801.34;5112677;28;20023;-88
2022/11/16 05:02:32;;;;;;;1.98;1.60;;;;;;;9.67;100.00;99798.00;5113516;28;20027;-88
2022/11/16 05:04:58;;;;;;;1.77;1.30;;;;;;;9.65;100.00;99804.09;5113757;28;20452;-87
2022/11/16 05:07:23;;;;;;;1.00;1.00;;;;;;;9.63;100.00;99809.31;5112751;28;20050;-88
2022/11/16 05:09:49;;;;;;;0.90;0.90;;;;;;;9.62;100.00;99807.63;5116987;28;20080;-87
2022/11/16 05:12:18;;;;;;;1.47;1.37;;;;;;;9.60;100.00;99796.44;5117294;28;20037;-88
2022/11/16 05:14:44;;;;;;;2.05;1.65;;;;;;;9.57;100.00;99796.53;5118014;28;20032;-88
2022/11/16 05:17:10;;;;;;;1.70;1.60;;;;;;;9.55;100.00;99791.41;5118268;28;20035;-88
2022/11/16 05:22:20;;;;;;;1.20;1.20;;;;;;;9.50;100.00;99808.81;5120771;22;20047;-88
2022/11/16 05:24:45;;;;;;;1.40;1.30;;;;;;;9.47;100.00;99811.50;5076920;28;20451;-88
2022/11/16 05:27:13;;;;;;;2.23;1.80;;;;;;;9.51;100.00;99809.66;5076141;28;20025;-88
2022/11/16 05:29:39;;;;;;;1.60;1.45;;;;;;;9.45;100.00;99810.66;5076403;28;20036;-87
2022/11/16 05:32:06;;;;;;;1.30;1.20;;;;;;;9.42;100.00;99806.44;5076680;28;20024;-88
2022/11/16 05:34:32;;;;;;;1.50;1.40;;;;;;;9.39;100.00;99809.09;5076558;28;20021;-88
2022/11/16 05:36:58;;;;;;;1.43;1.33;;;;;;;9.36;100.00;99800.56;5076578;28;20380;-88
2022/11/16 05:39:23;;;;;;;2.03;1.80;;;;;;;9.31;100.00;99800.69;5076542;28;20020;-88
2022/11/16 05:41:49;;;;;;;2.07;1.50;;;;;;;9.29;100.00;99804.22;5076283;28;20090;-88
2022/11/16 05:44:15;;;;;;;1.40;1.30;;;;;;;9.23;100.00;99800.06;5076443;28;20485;-88
2022/11/16 05:46:41;;;;;;;1.63;1.23;;;;;;;9.20;100.00;99797.53;5076601;28;20028;-88
2022/11/16 05:49:07;;;;;;;1.08;1.05;;;;;;;9.16;100.00;99793.31;5075518;28;20013;-87
2022/11/16 05:51:34;;;;;;;1.37;1.23;;;;;;;9.12;100.00;99797.75;5076497;28;20473;-88
2022/11/16 05:54:00;;;;;;;1.10;1.10;;;;;;;9.07;100.00;99800.44;5076262;28;20028;-88
2022/11/16 05:56:25;;;;;;;1.37;1.27;;;;;;;9.05;100.00;99804.81;5075728;28;20150;-87
2022/11/16 05:58:51;;;;;;;1.00;1.00;;;;;;;9.01;100.00;99803.19;5076128;28;20051;-88
2022/11/16 06:01:16;;;;;;;1.10;1.00;;;;;;;8.98;100.00;99805.00;5075475;28;20031;-88
2022/11/16 06:03:41;;;;;;;0.97;0.97;;;;;;;8.93;100.00;99805.13;5076545;28;20028;-88
2022/11/16 06:06:07;;;;;;;0.70;0.70;;;;;;;8.88;100.00;99817.34;5076029;28;20093;-88
2022/11/16 06:08:32;;;;;;;1.00;1.00;;;;;;;8.83;100.00;99806.25;5075726;28;20033;-87
2022/11/16 06:11:05;;;;;;;1.30;1.20;;;;;;;8.79;100.00;99815.81;5076067;28;20032;-88
2022/11/16 06:13:31;;;;;;;1.92;1.70;;;;;;;8.76;100.00;99819.34;5076047;28;20461;-87
2022/11/16 06:15:58;;;;;;;1.20;1.20;;;;;;;8.72;100.00;99820.28;5084175;28;20063;-88
2022/11/16 06:18:23;;;;;;;1.58;1.20;;;;;;;8.69;100.00;99829.88;5077968;28;20028;-88
2022/11/16 06:20:49;;;;;;;1.50;1.40;;;;;;;8.63;100.00;99828.28;5075560;28;20040;-87
2022/11/16 06:23:14;;;;;;;2.33;1.60;;;;;;;8.57;100.00;99831.84;5074754;28;20045;-88
2022/11/16 06:25:39;;;;;;;1.90;1.70;;;;;;;8.53;100.00;99834.53;5075381;28;20025;-86
2022/11/16 06:28:06;;;;;;;1.50;1.40;;;;;;;8.49;100.00;99838.94;5075449;28;20029;-87
2022/11/16 06:30:31;;;;;;;2.85;1.75;;;;;;;8.45;100.00;99839.84;5074522;28;20090;-88
2022/11/16 06:32:56;;;;;;;1.57;1.47;;;;;;;8.40;100.00;99842.56;5076108;28;20020;-89
2022/11/16 06:35:22;;;;;;;1.50;1.40;;;;;;;8.37;100.00;99850.38;5075516;28;20408;-87
2022/11/16 06:37:47;;;;;;;1.40;1.30;;;;;;;8.32;100.00;99847.88;5074152;28;20036;-88
2022/11/16 06:40:12;;;;;;;1.63;1.52;;;;;;;8.29;100.00;99853.13;5075037;28;20028;-87
2022/11/16 06:42:37;;;;;;;1.60;1.50;;;;;;;8.25;100.00;99846.31;5075588;28;20035;-89
2022/11/16 06:45:03;;;;;;;1.80;1.70;;;;;;;8.22;100.00;99850.72;5074096;28;20431;-85
2022/11/16 06:47:28;;;;;;;1.47;1.30;;;;;;;8.18;100.00;99853.38;5074916;28;20021;-85
2022/11/16 06:49:54;;;;;;;1.70;1.60;;;;;;;8.17;100.00;99858.53;5074632;28;20035;-85
2022/11/16 06:52:19;;;;;;;1.50;1.40;;;;;;;8.16;100.00;99862.03;5073545;28;20020;-84
2022/11/16 06:54:44;;;;;;;1.50;1.40;;;;;;;8.12;100.00;99871.56;5074590;28;20020;-84
2022/11/16 06:57:10;;;;;;;2.17;1.70;;;;;;;8.08;100.00;99869.94;5074345;28;20032;-84
2022/11/16 06:59:35;;;;;;;1.67;1.50;;;;;;;8.05;100.00;99870.00;5074380;28;20483;-84
2022/11/16 07:02:00;;;;;;;2.63;1.83;;;;;;;8.00;100.00;99875.25;5074141;28;20024;-85
2022/11/16 07:04:25;;;;;;;2.10;1.63;;;;;;;8.01;100.00;99878.69;5074549;28;20028;-89
2022/11/16 07:06:51;;;;;;;2.08;1.85;;;;;;;7.98;100.00;99871.03;5075060;28;20096;-89
2022/11/16 07:09:16;;;;;;;1.70;1.60;;;;;;;7.96;100.00;99872.78;5074997;28;20538;-86
2022/11/16 07:11:42;;;;;;;2.03;1.57;;;;;;;7.93;100.00;99881.44;5074103;28;20499;-90
2022/11/16 07:14:07;;;;;;;1.73;1.63;;;;;;;7.91;100.00;99874.59;5075888;28;20040;-90
2022/11/16 07:16:34;;;;;;;2.53;1.65;;;;;;;7.88;100.00;99872.94;5074921;28;20024;-88
2022/11/16 07:19:00;;;;;;;2.00;1.80;;;;;;;7.87;100.00;99878.97;5073943;28;20020;-88
2022/11/16 07:21:26;;;;;;;1.70;1.60;;;;;;;7.87;100.00;99882.41;5074847;28;20024;-87
2022/11/16 07:23:52;;;;;;;2.20;1.77;;;;;;;7.86;100.00;99879.84;5074139;28;20484;-88
2022/11/16 07:26:17;;;;;;;2.33;1.80;;;;;;;7.85;100.00;99889.34;5073717;28;20028;-87
2022/11/16 07:28:43;;;;;;;4.07;2.30;;;;;;;7.83;100.00;99891.09;5074205;28;20489;-85
2022/11/16 07:31:10;;;;;;;6.00;2.60;;;;;;;7.84;100.00;99892.81;5074893;28;20097;-87
2022/11/16 07:33:36;;;;;;;3.33;2.40;;;;;;;7.84;100.00;99897.97;5074555;28;20109;-87
2022/11/16 07:36:06;;;;;;;3.40;2.40;;;;;;;7.85;100.00;99901.38;5073844;28;20060;-87
2022/11/16 07:38:32;;;;;;;3.03;2.25;;;;;;;7.86;100.00;99908.25;5074108;28;20024;-87
2022/11/16 07:40:59;;;;;;;4.73;2.47;;;;;;;7.85;100.00;99914.31;5073530;28;20466;-86
2022/11/16 07:43:26;;;;;;;2.55;2.10;;;;;;;7.85;100.00;99917.75;5073858;28;20461;-88
2022/11/16 07:45:52;;;;;;;3.90;2.30;;;;;;;7.84;100.00;99916.06;5072862;28;20477;-84
2022/11/16 07:48:17;;;;;;;2.97;2.47;;;;;;;7.84;100.00;99913.47;5073699;28;20021;-86
2022/11/16 07:50:42;;;;;;;3.60;2.20;;;;;;;7.85;100.00;99917.75;5073412;28;20476;-87
2022/11/16 07:53:08;;;;;;;3.47;2.50;;;;;;;7.84;100.00;99910.88;5073328;28;20115;-86
2022/11/16 07:55:33;;;;;;;4.70;2.50;;;;;;;7.87;100.00;99921.19;5073235;28;20023;-87
2022/11/16 07:57:59;;;;;;;6.33;2.73;;;;;;;7.89;100.00;99918.56;5073604;28;20033;-87
2022/11/16 08:00:30;;;;;;;5.13;2.75;;;;;;;7.90;100.00;99917.66;5073391;28;20036;-87
2022/11/16 08:02:55;;;;;;;4.90;2.65;;;;;;;7.95;100.00;99921.00;5072798;28;20046;-87
2022/11/16 08:05:21;;;;;;;4.23;2.30;;;;;;;7.94;100.00;99921.03;5073103;28;20538;-87
2022/11/16 08:07:46;;;;;;;2.67;2.13;;;;;;;7.97;100.00;99919.25;5073738;28;20013;-87
2022/11/16 08:10:38;;;;;;;3.03;2.13;;;;;;;8.00;100.00;99920.91;5073012;28;20163;-89
2022/11/16 08:13:03;;;;;;;3.85;2.20;;;;;;;8.06;100.00;99925.97;5073117;28;20040;-86
2022/11/16 08:15:29;;;;;;;2.23;1.90;;;;;;;8.12;100.00;99931.00;5073354;28;20025;-88
2022/11/16 08:18:08;;;;;;;2.65;1.60;;;;;;;8.14;100.00;99923.25;5073724;28;20021;-87
2022/11/16 08:20:35;;;;;;;5.32;2.40;;;;;;;8.16;100.00;99927.50;5073919;28;20384;-87
2022/11/16 08:23:00;;;;;;;2.97;2.20;;;;;;;8.20;100.00;99923.09;5072943;28;20556;-87
2022/11/16 08:25:26;;;;;;;2.57;2.00;;;;;;;8.24;100.00;99931.66;5073132;28;20111;-87
2022/11/16 08:27:51;;;;;;;4.77;2.10;;;;;;;8.27;100.00;99926.41;5073642;28;20025;-87
2022/11/16 08:30:16;;;;;;;2.73;2.00;;;;;;;8.34;100.00;99933.16;5072628;28;20028;-87
2022/11/16 08:32:42;;;;;;;2.15;1.80;;;;;;;8.39;100.00;99930.50;5073767;28;20506;-89
2022/11/16 08:35:07;;;;;;;5.13;2.23;;;;;;;8.44;100.00;99924.34;5073821;28;20021;-87
2022/11/16 08:37:33;;;;;;;5.10;2.37;;;;;;;8.50;100.00;99928.53;5072383;28;20029;-88
2022/11/16 08:39:58;;;;;;;2.60;1.88;;;;;;;8.54;100.00;99927.59;5073452;28;20074;-88
2022/11/16 08:42:23;;;;;;;7.33;2.13;;;;;;;8.61;100.00;99921.41;5073123;28;20028;-88
2022/11/16 08:44:48;;;;;;;3.63;2.00;;;;;;;8.65;100.00;99928.22;5072483;28;20135;-88
2022/11/16 08:47:14;;;;;;;4.83;2.10;;;;;;;8.71;100.00;99924.66;5073109;28;20033;-87
2022/11/16 08:49:39;;;;;;;4.70;2.10;;;;;;;8.76;100.00;99927.13;5072986;28;20017;-86
2022/11/16 08:52:05;;;;;;;4.40;2.13;;;;;;;8.81;100.00;99935.66;5072585;28;20042;-87
2022/11/16 08:54:30;;;;;;;4.03;1.93;;;;;;;8.87;100.00;99934.66;5072779;28;20031;-87
2022/11/16 08:56:55;;;;;;;3.73;2.00;;;;;;;8.92;100.00;99938.84;5073051;28;20099;-88
2022/11/16 08:59:21;;;;;;;4.20;1.80;;;;;;;8.99;100.00;99934.38;5072108;28;20036;-87
2022/11/16 09:01:46;;;;;;;5.05;1.98;;;;;;;9.04;100.00;99942.88;5073233;28;20079;-87
2022/11/16 09:04:11;;;;;;;2.00;1.80;;;;;;;9.10;100.00;99952.22;5071748;28;20041;-86
2022/11/16 09:06:37;;;;;;;5.57;1.83;;;;;;;9.19;100.00;99946.00;5072631;28;20031;-88
2022/11/16 09:09:03;;;;;;;3.80;1.80;;;;;;;9.24;100.00;99950.16;5073407;28;20047;-86
2022/11/16 09:11:41;;;;;;;3.70;1.98;;;;;;;9.32;100.00;99955.16;5071975;28;20067;-86
2022/11/16 09:14:06;;;;;;;5.05;1.80;;;;;;;9.35;100.00;99943.88;5072097;28;20115;-86
2022/11/16 09:16:31;;;;;;;3.30;2.13;;;;;;;9.42;100.00;99951.47;5072789;28;20060;-87
2022/11/16 09:18:57;;;;;;;4.83;2.00;;;;;;;9.50;100.00;99951.28;5072435;28;20115;-87
2022/11/16 09:21:25;;;;;;;5.83;2.10;;;;;;;9.56;100.00;99947.69;5072205;28;20021;-86
2022/11/16 09:23:55;;;;;;;4.55;1.90;;;;;;;9.63;100.00;99949.22;5070901;28;20040;-86
2022/11/16 09:26:21;;;;;;;6.55;2.28;;;;;;;9.71;100.00;99951.63;5071507;28;20028;-86
2022/11/16 09:28:57;;;;;;;;;;;;;;;9.79;100.00;99952.25;5072473;28;20438;-85
2022/11/16 09:31:26;;;;;;;4.00;1.75;;;;;;;9.84;100.00;99955.59;5072992;28;20265;-87
2022/11/16 09:33:51;;;;;;;5.75;2.13;;;;;;;9.90;100.00;99951.97;5071622;28;20500;-86
2022/11/16 09:36:17;;;;;;;2.67;1.73;;;;;;;9.95;100.00;99955.28;5072174;28;20029;-86
2022/11/16 09:38:43;;;;;;;7.23;2.30;;;;;;;10.01;99.23;99954.28;5072738;28;20078;-87
2022/11/16 09:41:12;;;;;;;3.80;1.98;;;;;;;10.07;100.00;99959.31;5071272;28;20434;-86
2022/11/16 09:43:45;;;;;;;3.72;1.67;;;;;;;10.11;100.00;99954.88;5072222;28;20044;-86
2022/11/16 09:46:22;;;;;;;2.35;1.60;;;;;;;10.18;100.00;99966.78;5071856;28;20024;-87
2022/11/16 09:48:49;;;;;;;4.80;1.90;;;;;;;10.26;99.64;99951.84;5072488;28;20016;-87
2022/11/16 09:51:16;;;;;;;5.53;2.05;;;;;;;10.29;99.20;99958.69;5071983;28;20021;-87
2022/11/16 09:53:47;;;;;;;4.43;1.95;;;;;;;10.33;98.41;99955.13;5071261;28;20452;-85
2022/11/16 09:56:20;;;;;;;3.72;1.90;;;;;;;10.39;99.01;99959.31;5075516;28;20078;-85
2022/11/16 09:59:04;;;;;;;7.20;2.17;;;;;;;10.50;96.92;99965.03;5075626;28;20107;-85
2022/11/16 10:01:41;;;;;;;6.20;2.15;;;;;;;10.50;96.92;99971.09;5075058;28;20055;-85
2022/11/16 10:04:13;;;;;;;5.80;2.28;;;;;;;10.59;97.77;99967.34;5075711;28;20108;-85
2022/11/16 10:06:48;;;;;;;5.00;2.33;;;;;;;10.65;97.21;99963.72;5075345;28;20368;-86
2022/11/16 10:09:14;;;;;;;4.80;1.92;;;;;;;10.70;97.14;99964.44;5074808;28;20064;-85
2022/11/16 10:12:09;;;;;;;4.00;2.00;;;;;;;10.74;93.78;99970.41;5075670;28;20052;-85
2022/11/16 10:14:53;;;;;;;3.88;1.92;;;;;;;10.73;95.97;99969.56;5075152;28;20420;-86
2022/11/16 10:17:37;;;;;;;3.55;1.90;;;;;;;10.79;94.37;99965.94;5075946;28;20032;-86
2022/11/16 10:20:18;;;;;;;4.10;1.70;;;;;;;10.86;95.58;99962.25;5075577;28;20354;-86
2022/11/16 10:22:50;;;;;;;2.95;1.52;;;;;;;10.91;95.62;99962.09;5074556;28;20102;-87
2022/11/16 10:25:20;;;;;;;3.13;1.70;;;;;;;11.02;95.11;99956.59;5075807;28;20032;-84
2022/11/16 10:28:22;;;;;;;3.72;1.58;;;;;;;11.09;94.52;99960.69;5075508;28;20417;-85
2022/11/16 10:31:02;;;;;;;5.72;1.80;;;;;;;11.12;92.52;99956.22;5075746;28;20412;-85
2022/11/16 10:33:34;;;;;;;4.65;1.80;;;;;;;11.16;93.48;99954.38;5075377;28;20485;-84
2022/11/16 10:36:02;;;;;;;3.80;1.77;;;;;;;11.17;91.16;99944.84;5074514;28;20078;-84
2022/11/16 10:38:29;;;;;;;5.30;1.63;;;;;;;11.19;91.88;99953.47;5075464;28;20104;-85
2022/11/16 10:41:00;;;;;;;4.75;1.50;;;;;;;11.23;92.41;99953.31;5075113;28;20028;-85
2022/11/16 10:43:31;;;;;;;3.70;1.77;;;;;;;11.32;93.16;99951.28;5074719;28;20032;-85
2022/11/16 10:46:15;;;;;;;1.98;1.23;;;;;;;11.39;92.66;99960.56;5075226;28;20021;-83
2022/11/16 10:49:06;;;;;;;2.00;1.30;;;;;;;11.46;92.17;99953.44;5093768;22;20044;-87
2022/11/16 10:51:31;;;;;;;2.10;1.20;;;;;;;11.51;93.22;99961.94;5094571;28;20024;-87
2022/11/16 10:53:59;;;;;;;1.90;1.30;;;;;;;11.66;93.20;99953.59;5095295;28;20027;-87
2022/11/16 10:56:36;;;;;;;2.47;1.48;;;;;;;11.66;92.42;99947.56;5094754;28;20042;-85
2022/11/16 10:59:04;;;;;;;3.22;1.33;;;;;;;11.66;91.06;99951.00;5094424;28;20479;-85
2022/11/16 11:01:29;;;;;;;2.80;1.60;;;;;;;11.70;92.18;99952.63;5095663;28;20388;-88
2022/11/16 11:03:55;;;;;;;3.67;1.60;;;;;;;11.76;92.17;99961.13;5094342;28;20016;-86
2022/11/16 11:06:26;;;;;;;5.67;1.80;;;;;;;11.71;90.49;99962.09;5093378;28;20023;-86
2022/11/16 11:08:51;;;;;;;4.70;1.50;;;;;;;11.57;89.47;99957.38;5094597;28;20464;-86
2022/11/16 11:14:14;;;;;;;8.57;2.08;;;;;;;11.55;89.02;99950.53;5095132;28;20047;-86
2022/11/16 11:16:40;;;;;;;3.20;1.60;;;;;;;11.46;88.08;99941.31;5094423;28;20468;-85
2022/11/16 11:19:26;;;;;;;3.27;1.63;;;;;;;11.41;88.61;99944.06;5078958;28;20026;-85
2022/11/16 11:21:58;;;;;;;3.65;1.60;;;;;;;11.38;89.34;99944.16;5094608;28;20419;-85
2022/11/16 11:24:25;;;;;;;1.70;1.23;;;;;;;11.39;89.00;99945.84;5094341;28;20028;-85
2022/11/16 11:26:52;;;;;;;;;;;;;;;11.37;86.63;99949.41;5094241;28;20031;-85
2022/11/16 11:29:18;;;;;;;2.28;1.13;;;;;;;11.38;88.13;99943.28;5094165;28;19912;-86
2022/11/16 11:31:48;;;;;;;5.37;1.60;;;;;;;11.33;86.41;99943.44;5094510;28;20039;-86
2022/11/16 11:34:19;;;;;;;3.83;1.50;;;;;;;11.28;88.48;99945.34;5093699;28;20274;-85
2022/11/16 11:36:49;;;;;;;2.35;1.25;;;;;;;11.25;88.80;99935.06;5094540;28;20388;-85
2022/11/16 11:39:15;;;;;;;3.78;1.40;;;;;;;11.20;87.46;99924.00;5082093;22;20044;-84
2022/11/16 11:41:45;;;;;;;2.77;1.20;;;;;;;11.19;87.45;99922.28;5072845;28;20034;-85
2022/11/16 11:44:16;;;;;;;1.45;1.15;;;;;;;11.17;87.52;99929.28;5073468;28;20124;-85
2022/11/16 11:46:50;;;;;;;2.03;1.00;;;;;;;11.18;88.55;99930.97;5072985;28;20028;-85
2022/11/16 11:49:22;;;;;;;3.03;1.35;;;;;;;11.16;87.58;99923.22;5073358;28;20107;-85
2022/11/16 11:51:48;;;;;;;2.80;1.30;;;;;;;11.12;87.45;99925.06;5073587;28;20025;-86
2022/11/16 11:54:21;;;;;;;2.67;1.20;;;;;;;11.14;88.98;99922.44;5072048;28;20111;-84
2022/11/16 11:56:47;;;;;;;2.92;1.20;;;;;;;11.16;89.19;99915.44;5073620;28;20028;-84
2022/11/16 11:59:21;;;;;;;3.10;1.50;;;;;;;11.17;88.50;99914.53;5073198;28;20029;-85
2022/11/16 12:02:13;;;;;;;3.13;1.23;;;;;;;11.18;88.67;99907.59;5073022;28;20040;-85
2022/11/16 12:05:15;;;;;;;1.73;1.00;;;;;;;11.35;88.80;99899.25;5073247;28;20078;-85
2022/11/16 12:07:46;;;;;;;2.80;1.25;;;;;;;11.41;88.45;99904.22;5072799;28;20476;-85
2022/11/16 12:10:20;;;;;;;2.17;1.20;;;;;;;11.42;87.62;99909.38;5072621;28;20121;-85
2022/11/16 12:13:02;;;;;;;2.90;1.30;;;;;;;11.48;86.16;99908.34;5073346;28;20048;-84
2022/11/16 12:15:45;;;;;;;5.35;1.70;;;;;;;11.54;85.83;99897.72;5052335;28;20389;-85
2022/11/16 12:18:36;;;;;;;2.50;1.35;;;;;;;11.56;85.31;99895.91;5055490;28;20096;-85
2022/11/16 12:21:12;;;;;;;3.88;1.50;;;;;;;11.59;87.30;99889.75;5072610;28;20032;-85
2022/11/16 12:24:08;;;;;;;2.20;1.40;;;;;;;11.65;87.49;99886.09;5072994;28;20087;-87
2022/11/16 12:26:53;;;;;;;5.03;1.37;;;;;;;11.73;87.87;99894.47;5073035;28;20086;-85
2022/11/16 12:29:47;;;;;;;2.25;1.10;;;;;;;11.77;85.65;99877.00;5069694;28;20294;-84